Lummi Island, Washington
Current Conditions -  °F | °C
As of 9:53 PM on Saturday 20 Dec 2014 (Local Time) from KBLI Reporting Station
Overcast Overcast  
Wind Chill: 55°   Ceiling: 2300
Heat Index: 55°   Visibility: 7mi
Dew Point: 48°   Wind: 15mph
Humidity: 77%   Direction: 180°S
Pressure: 29.38"   Gusts: 22mph
Location:  48.72°N, 122.68°W
Report Text: KBLI 210553Z 18013G19KT 7SM BKN023 BKN030 OVC080 13/09 A2938 RMK AO2 RAE01 SLP954 P0000 60010 T01280089 10128 20106 53009
Loading
Personal Weather Stations






























Interactive Weather Map New forecast layout! Learn more

10-Day Weather Forecast

Advertisements
Track Severe Weather on mobile